sensor_id;sensor_type;location;lat;lon;timestamp;pressure;altitude;pressure_sealevel;temperature;humidity
77793;BME280;66983;51.438;5.438;2023-07-08T00:01:15;101444.50;;;21.98;50.58
77793;BME280;66983;51.438;5.438;2023-07-08T00:03:41;101436.72;;;21.93;51.10
77793;BME280;66983;51.438;5.438;2023-07-08T00:06:26;101435.97;;;21.91;50.07
77793;BME280;66983;51.438;5.438;2023-07-08T00:08:52;101437.19;;;21.87;50.40
77793;BME280;66983;51.438;5.438;2023-07-08T00:11:18;101436.69;;;21.82;50.66
77793;BME280;66983;51.438;5.438;2023-07-08T00:13:45;101427.03;;;21.78;50.40
77793;BME280;66983;51.438;5.438;2023-07-08T00:16:16;101424.69;;;21.74;51.25
77793;BME280;66983;51.438;5.438;2023-07-08T00:18:42;101422.31;;;21.69;51.38
77793;BME280;66983;51.438;5.438;2023-07-08T00:21:13;101422.53;;;21.66;51.92
77793;BME280;66983;51.438;5.438;2023-07-08T00:23:45;101429.06;;;21.63;51.44
77793;BME280;66983;51.438;5.438;2023-07-08T00:28:43;101426.09;;;21.55;51.99
77793;BME280;66983;51.438;5.438;2023-07-08T00:31:10;101420.03;;;21.52;50.87
77793;BME280;66983;51.438;5.438;2023-07-08T00:33:36;101417.53;;;21.49;51.18
77793;BME280;66983;51.438;5.438;2023-07-08T00:36:01;101421.22;;;21.48;51.76
77793;BME280;66983;51.438;5.438;2023-07-08T00:38:30;101417.78;;;21.46;51.78
77793;BME280;66983;51.438;5.438;2023-07-08T00:41:01;101409.97;;;21.41;52.17
77793;BME280;66983;51.438;5.438;2023-07-08T00:43:39;101413.78;;;21.39;52.26
77793;BME280;66983;51.438;5.438;2023-07-08T00:48:39;101410.66;;;21.32;51.87
77793;BME280;66983;51.438;5.438;2023-07-08T00:51:08;101405.38;;;21.30;51.56
77793;BME280;66983;51.438;5.438;2023-07-08T00:53:37;101408.75;;;21.21;52.93
77793;BME280;66983;51.438;5.438;2023-07-08T00:56:16;101410.78;;;21.18;52.39
77793;BME280;66983;51.438;5.438;2023-07-08T00:59:03;101406.56;;;21.14;53.22
77793;BME280;66983;51.438;5.438;2023-07-08T01:01:35;101408.41;;;21.13;52.42
77793;BME280;66983;51.438;5.438;2023-07-08T01:06:45;101399.41;;;21.13;51.94
77793;BME280;66983;51.438;5.438;2023-07-08T01:09:14;101401.50;;;21.09;53.31
77793;BME280;66983;51.438;5.438;2023-07-08T01:11:40;101401.00;;;21.04;52.73
77793;BME280;66983;51.438;5.438;2023-07-08T01:14:11;101416.25;;;21.05;52.84
77793;BME280;66983;51.438;5.438;2023-07-08T01:16:38;101407.38;;;21.03;52.88
77793;BME280;66983;51.438;5.438;2023-07-08T01:19:09;101408.47;;;21.00;52.99
77793;BME280;66983;51.438;5.438;2023-07-08T01:21:45;101409.56;;;20.98;53.18
77793;BME280;66983;51.438;5.438;2023-07-08T01:24:11;101408.06;;;20.94;54.44
77793;BME280;66983;51.438;5.438;2023-07-08T01:26:42;101402.63;;;20.94;52.77
77793;BME280;66983;51.438;5.438;2023-07-08T01:29:10;101401.13;;;20.90;52.85
77793;BME280;66983;51.438;5.438;2023-07-08T01:31:36;101398.53;;;20.88;53.32
77793;BME280;66983;51.438;5.438;2023-07-08T01:34:02;101403.94;;;20.88;53.48
77793;BME280;66983;51.438;5.438;2023-07-08T01:36:37;101405.03;;;20.86;53.49
77793;BME280;66983;51.438;5.438;2023-07-08T01:39:04;101398.84;;;20.84;52.99
77793;BME280;66983;51.438;5.438;2023-07-08T01:41:30;101395.28;;;20.83;53.38
77793;BME280;66983;51.438;5.438;2023-07-08T01:43:55;101394.41;;;20.83;53.36
77793;BME280;66983;51.438;5.438;2023-07-08T01:46:26;101397.34;;;20.80;53.58
77793;BME280;66983;51.438;5.438;2023-07-08T01:48:56;101404.50;;;20.81;52.50
77793;BME280;66983;51.438;5.438;2023-07-08T01:51:24;101398.34;;;20.79;53.60
77793;BME280;66983;51.438;5.438;2023-07-08T01:53:51;101391.19;;;20.78;53.52
77793;BME280;66983;51.438;5.438;2023-07-08T01:56:16;101395.63;;;20.79;53.23
77793;BME280;66983;51.438;5.438;2023-07-08T01:58:42;101384.78;;;20.79;53.01
77793;BME280;66983;51.438;5.438;2023-07-08T02:01:09;101379.38;;;20.79;53.12
77793;BME280;66983;51.438;5.438;2023-07-08T02:03:34;101376.03;;;20.75;53.18
77793;BME280;66983;51.438;5.438;2023-07-08T02:06:01;101374.41;;;20.73;53.20
77793;BME280;66983;51.438;5.438;2023-07-08T02:08:26;101373.66;;;20.71;53.54
77793;BME280;66983;51.438;5.438;2023-07-08T02:10:56;101363.66;;;20.71;53.54
77793;BME280;66983;51.438;5.438;2023-07-08T02:13:23;101365.75;;;20.67;53.93
77793;BME280;66983;51.438;5.438;2023-07-08T02:15:50;101366.72;;;20.66;54.12
77793;BME280;66983;51.438;5.438;2023-07-08T02:18:16;101354.25;;;20.64;53.38
77793;BME280;66983;51.438;5.438;2023-07-08T02:20:44;101360.53;;;20.64;53.59
77793;BME280;66983;51.438;5.438;2023-07-08T02:23:10;101362.50;;;20.62;53.82
77793;BME280;66983;51.438;5.438;2023-07-08T02:25:36;101357.41;;;20.58;54.55
77793;BME280;66983;51.438;5.438;2023-07-08T02:28:02;101353.31;;;20.52;54.36
77793;BME280;66983;51.438;5.438;2023-07-08T02:30:28;101350.81;;;20.49;54.11
77793;BME280;66983;51.438;5.438;2023-07-08T02:32:53;101344.66;;;20.47;53.92
77793;BME280;66983;51.438;5.438;2023-07-08T02:35:27;101340.97;;;20.48;54.31
77793;BME280;66983;51.438;5.438;2023-07-08T02:37:53;101341.41;;;20.42;54.06
77793;BME280;66983;51.438;5.438;2023-07-08T02:40:20;101337.19;;;20.38;54.82
77793;BME280;66983;51.438;5.438;2023-07-08T02:42:46;101341.91;;;20.34;55.01
77793;BME280;66983;51.438;5.438;2023-07-08T02:45:12;101339.31;;;20.33;54.78
77793;BME280;66983;51.438;5.438;2023-07-08T02:47:38;101342.47;;;20.27;55.90
77793;BME280;66983;51.438;5.438;2023-07-08T02:50:04;101342.81;;;20.22;55.15
77793;BME280;66983;51.438;5.438;2023-07-08T02:52:30;101349.97;;;20.23;55.24
77793;BME280;66983;51.438;5.438;2023-07-08T02:54:56;101350.81;;;20.24;54.62
77793;BME280;66983;51.438;5.438;2023-07-08T02:57:21;101350.06;;;20.22;55.50
77793;BME280;66983;51.438;5.438;2023-07-08T02:59:47;101350.50;;;20.16;55.47
77793;BME280;66983;51.438;5.438;2023-07-08T03:02:12;101348.00;;;20.13;56.13
77793;BME280;66983;51.438;5.438;2023-07-08T03:04:39;101361.75;;;20.10;55.17
77793;BME280;66983;51.438;5.438;2023-07-08T03:07:06;101357.63;;;20.04;56.46
77793;BME280;66983;51.438;5.438;2023-07-08T03:09:40;101366.09;;;19.99;57.02
77793;BME280;66983;51.438;5.438;2023-07-08T03:12:10;101365.44;;;19.96;57.04
77793;BME280;66983;51.438;5.438;2023-07-08T03:14:36;101361.09;;;19.93;56.85
77793;BME280;66983;51.438;5.438;2023-07-08T03:17:03;101362.28;;;19.89;57.24
77793;BME280;66983;51.438;5.438;2023-07-08T03:19:28;101362.59;;;19.85;57.29
77793;BME280;66983;51.438;5.438;2023-07-08T03:21:54;101360.97;;;19.82;57.31
77793;BME280;66983;51.438;5.438;2023-07-08T03:24:20;101366.28;;;19.84;56.90
77793;BME280;66983;51.438;5.438;2023-07-08T03:26:47;101366.59;;;19.79;55.96
77793;BME280;66983;51.438;5.438;2023-07-08T03:29:16;101362.34;;;19.75;57.71
77793;BME280;66983;51.438;5.438;2023-07-08T03:31:44;101362.59;;;19.72;57.84
77793;BME280;66983;51.438;5.438;2023-07-08T03:34:15;101371.88;;;19.68;57.80
77793;BME280;66983;51.438;5.438;2023-07-08T03:36:44;101370.34;;;19.64;58.08
77793;BME280;66983;51.438;5.438;2023-07-08T03:39:21;101370.56;;;19.61;59.57
77793;BME280;66983;51.438;5.438;2023-07-08T03:41:48;101365.25;;;19.59;59.18
77793;BME280;66983;51.438;5.438;2023-07-08T03:44:14;101369.03;;;19.57;59.61
77793;BME280;66983;51.438;5.438;2023-07-08T03:46:44;101367.69;;;19.50;59.27
77793;BME280;66983;51.438;5.438;2023-07-08T03:49:11;101375.47;;;19.42;60.33
77793;BME280;66983;51.438;5.438;2023-07-08T03:51:39;101379.34;;;19.38;59.45
77793;BME280;66983;51.438;5.438;2023-07-08T03:54:09;101385.63;;;19.38;60.43
77793;BME280;66983;51.438;5.438;2023-07-08T03:56:36;101382.44;;;19.31;59.40
77793;BME280;66983;51.438;5.438;2023-07-08T03:59:02;101373.66;;;19.28;61.34
77793;BME280;66983;51.438;5.438;2023-07-08T04:01:29;101383.63;;;19.27;60.67
77793;BME280;66983;51.438;5.438;2023-07-08T04:03:57;101386.41;;;19.26;61.86
77793;BME280;66983;51.438;5.438;2023-07-08T04:06:24;101392.88;;;19.23;61.12
77793;BME280;66983;51.438;5.438;2023-07-08T04:08:50;101386.75;;;19.21;61.73
77793;BME280;66983;51.438;5.438;2023-07-08T04:11:19;101389.56;;;19.20;61.05
77793;BME280;66983;51.438;5.438;2023-07-08T04:13:47;101390.84;;;19.27;61.51
77793;BME280;66983;51.438;5.438;2023-07-08T04:16:23;101387.53;;;19.36;59.98
77793;BME280;66983;51.438;5.438;2023-07-08T04:18:50;101387.16;;;19.42;59.96
77793;BME280;66983;51.438;5.438;2023-07-08T04:21:19;101387.25;;;19.41;60.54
77793;BME280;66983;51.438;5.438;2023-07-08T04:23:45;101397.84;;;19.44;60.11
77793;BME280;66983;51.438;5.438;2023-07-08T04:26:10;101388.97;;;19.42;60.96
77793;BME280;66983;51.438;5.438;2023-07-08T04:28:37;101388.69;;;19.46;59.69
77793;BME280;66983;51.438;5.438;2023-07-08T04:31:03;101383.47;;;19.43;60.80
77793;BME280;66983;51.438;5.438;2023-07-08T04:33:29;101385.41;;;19.41;60.01
77793;BME280;66983;51.438;5.438;2023-07-08T04:35:55;101381.84;;;19.41;61.45
77793;BME280;66983;51.438;5.438;2023-07-08T04:38:23;101384.13;;;19.47;60.18
77793;BME280;66983;51.438;5.438;2023-07-08T04:40:51;101376.78;;;19.49;59.56
77793;BME280;66983;51.438;5.438;2023-07-08T04:43:18;101377.44;;;19.52;59.46
77793;BME280;66983;51.438;5.438;2023-07-08T04:45:48;101375.75;;;19.64;60.09
77793;BME280;66983;51.438;5.438;2023-07-08T04:48:17;101380.34;;;19.89;59.29
77793;BME280;66983;51.438;5.438;2023-07-08T04:50:47;101383.81;;;20.29;57.58
77793;BME280;66983;51.438;5.438;2023-07-08T04:53:14;101385.69;;;20.66;57.78
77793;BME280;66983;51.438;5.438;2023-07-08T04:55:44;101384.34;;;21.21;55.71
77793;BME280;66983;51.438;5.438;2023-07-08T04:58:10;101376.69;;;21.74;54.23
77793;BME280;66983;51.438;5.438;2023-07-08T05:00:36;101389.06;;;22.24;52.62
77793;BME280;66983;51.438;5.438;2023-07-08T05:03:02;101371.94;;;22.57;51.27
77793;BME280;66983;51.438;5.438;2023-07-08T05:05:27;101385.75;;;22.43;52.11
77793;BME280;66983;51.438;5.438;2023-07-08T05:07:53;101384.69;;;22.11;52.90
77793;BME280;66983;51.438;5.438;2023-07-08T05:10:20;101388.19;;;21.78;55.00
77793;BME280;66983;51.438;5.438;2023-07-08T05:12:46;101383.78;;;21.53;54.46
77793;BME280;66983;51.438;5.438;2023-07-08T05:15:13;101384.50;;;21.31;55.61
77793;BME280;66983;51.438;5.438;2023-07-08T05:17:40;101390.19;;;21.15;54.34
77793;BME280;66983;51.438;5.438;2023-07-08T05:20:12;101388.03;;;21.08;55.68
77793;BME280;66983;51.438;5.438;2023-07-08T05:22:39;101396.72;;;21.13;56.43
77793;BME280;66983;51.438;5.438;2023-07-08T05:25:05;101387.38;;;21.29;54.67
77793;BME280;66983;51.438;5.438;2023-07-08T05:27:31;101384.84;;;21.74;54.16
77793;BME280;66983;51.438;5.438;2023-07-08T05:30:00;101372.38;;;21.83;54.00
77793;BME280;66983;51.438;5.438;2023-07-08T05:32:26;101372.03;;;21.87;54.09
77793;BME280;66983;51.438;5.438;2023-07-08T05:34:52;101376.34;;;21.79;53.25
77793;BME280;66983;51.438;5.438;2023-07-08T05:37:18;101372.25;;;21.73;53.84
77793;BME280;66983;51.438;5.438;2023-07-08T05:39:46;101378.91;;;21.69;54.31
77793;BME280;66983;51.438;5.438;2023-07-08T05:42:12;101372.59;;;21.68;54.98
77793;BME280;66983;51.438;5.438;2023-07-08T05:44:37;101373.22;;;21.72;53.93
77793;BME280;66983;51.438;5.438;2023-07-08T05:47:03;101372.25;;;21.73;54.31
77793;BME280;66983;51.438;5.438;2023-07-08T05:49:29;101374.97;;;21.73;53.77
77793;BME280;66983;51.438;5.438;2023-07-08T05:51:54;101363.00;;;21.76;53.07
77793;BME280;66983;51.438;5.438;2023-07-08T05:54:20;101365.38;;;21.80;53.55
77793;BME280;66983;51.438;5.438;2023-07-08T05:56:45;101370.94;;;21.90;52.92
77793;BME280;66983;51.438;5.438;2023-07-08T05:59:11;101371.94;;;22.57;52.31
77793;BME280;66983;51.438;5.438;2023-07-08T06:01:37;101382.69;;;23.67;49.15
77793;BME280;66983;51.438;5.438;2023-07-08T06:04:03;101371.53;;;23.71;47.42
77793;BME280;66983;51.438;5.438;2023-07-08T06:06:28;101380.97;;;23.34;48.78
77793;BME280;66983;51.438;5.438;2023-07-08T06:08:54;101389.19;;;23.12;49.90
77793;BME280;66983;51.438;5.438;2023-07-08T06:11:20;101395.75;;;22.98;49.99
77793;BME280;66983;51.438;5.438;2023-07-08T06:13:47;101392.91;;;22.89;50.79
77793;BME280;66983;51.438;5.438;2023-07-08T06:16:13;101398.34;;;22.89;51.89
77793;BME280;66983;51.438;5.438;2023-07-08T06:18:39;101393.66;;;22.91;50.70
77793;BME280;66983;51.438;5.438;2023-07-08T06:21:05;101387.09;;;22.93;51.43
77793;BME280;66983;51.438;5.438;2023-07-08T06:23:31;101386.97;;;22.95;51.99
77793;BME280;66983;51.438;5.438;2023-07-08T06:25:56;101390.94;;;23.02;50.99
77793;BME280;66983;51.438;5.438;2023-07-08T06:28:22;101387.72;;;23.08;50.05
77793;BME280;66983;51.438;5.438;2023-07-08T06:30:48;101397.34;;;23.12;50.70
77793;BME280;66983;51.438;5.438;2023-07-08T06:33:14;101390.63;;;23.16;49.88
77793;BME280;66983;51.438;5.438;2023-07-08T06:35:40;101389.00;;;23.25;50.00
77793;BME280;66983;51.438;5.438;2023-07-08T06:38:06;101394.56;;;23.34;49.93
77793;BME280;66983;51.438;5.438;2023-07-08T06:40:33;101380.84;;;23.36;48.71
77793;BME280;66983;51.438;5.438;2023-07-08T06:42:59;101388.44;;;23.42;48.87
77793;BME280;66983;51.438;5.438;2023-07-08T06:45:47;101407.84;;;23.49;49.14
77793;BME280;66983;51.438;5.438;2023-07-08T06:48:13;101396.25;;;23.58;51.03
77793;BME280;66983;51.438;5.438;2023-07-08T06:50:41;101395.00;;;23.62;48.44
77793;BME280;66983;51.438;5.438;2023-07-08T06:53:07;101389.22;;;23.76;48.62
77793;BME280;66983;51.438;5.438;2023-07-08T06:55:33;101383.00;;;23.85;47.12
77793;BME280;66983;51.438;5.438;2023-07-08T06:57:58;101384.28;;;23.91;46.66
77793;BME280;66983;51.438;5.438;2023-07-08T07:00:24;101379.94;;;23.99;47.35
77793;BME280;66983;51.438;5.438;2023-07-08T07:02:50;101380.13;;;24.08;47.73
77793;BME280;66983;51.438;5.438;2023-07-08T07:05:15;101381.63;;;24.21;46.51
77793;BME280;66983;51.438;5.438;2023-07-08T07:07:41;101383.59;;;24.30;46.75
77793;BME280;66983;51.438;5.438;2023-07-08T07:10:06;101384.91;;;24.36;47.26
77793;BME280;66983;51.438;5.438;2023-07-08T07:12:33;101387.94;;;24.43;46.60
77793;BME280;66983;51.438;5.438;2023-07-08T07:14:59;101387.41;;;24.49;46.97
77793;BME280;66983;51.438;5.438;2023-07-08T07:17:25;101383.88;;;24.58;48.05
77793;BME280;66983;51.438;5.438;2023-07-08T07:19:53;101387.34;;;24.69;47.28
77793;BME280;66983;51.438;5.438;2023-07-08T07:22:19;101386.81;;;24.76;46.27
77793;BME280;66983;51.438;5.438;2023-07-08T07:24:45;101387.25;;;24.81;45.67
77793;BME280;66983;51.438;5.438;2023-07-08T07:27:10;101383.72;;;24.90;45.94
77793;BME280;66983;51.438;5.438;2023-07-08T07:29:48;101379.88;;;25.02;45.49
77793;BME280;66983;51.438;5.438;2023-07-08T07:32:15;101391.69;;;25.12;45.35
77793;BME280;66983;51.438;5.438;2023-07-08T07:34:41;101396.00;;;25.24;46.41
77793;BME280;66983;51.438;5.438;2023-07-08T07:37:15;101390.88;;;25.41;44.00
77793;BME280;66983;51.438;5.438;2023-07-08T07:39:41;101393.75;;;25.49;45.57
77793;BME280;66983;51.438;5.438;2023-07-08T07:42:08;101387.72;;;25.55;44.32
77793;BME280;66983;51.438;5.438;2023-07-08T07:44:33;101386.03;;;25.63;44.16
77793;BME280;66983;51.438;5.438;2023-07-08T07:46:59;101391.47;;;25.73;44.32
77793;BME280;66983;51.438;5.438;2023-07-08T07:49:25;101382.13;;;25.85;45.02
77793;BME280;66983;51.438;5.438;2023-07-08T07:51:50;101385.16;;;25.92;44.43
77793;BME280;66983;51.438;5.438;2023-07-08T07:54:16;101371.47;;;26.01;44.02
77793;BME280;66983;51.438;5.438;2023-07-08T07:56:42;101373.03;;;26.14;44.65
77793;BME280;66983;51.438;5.438;2023-07-08T07:59:10;101383.47;;;26.28;45.03
77793;BME280;66983;51.438;5.438;2023-07-08T08:01:36;101388.38;;;26.44;44.02
77793;BME280;66983;51.438;5.438;2023-07-08T08:04:02;101383.56;;;26.55;43.40
77793;BME280;66983;51.438;5.438;2023-07-08T08:06:27;101388.44;;;26.61;45.46
77793;BME280;66983;51.438;5.438;2023-07-08T08:08:53;101380.06;;;26.73;44.82
77793;BME280;66983;51.438;5.438;2023-07-08T08:11:18;101387.19;;;26.83;43.42
77793;BME280;66983;51.438;5.438;2023-07-08T08:13:45;101384.56;;;26.91;43.33
77793;BME280;66983;51.438;5.438;2023-07-08T08:16:10;101388.44;;;26.98;42.17
77793;BME280;66983;51.438;5.438;2023-07-08T08:18:36;101389.53;;;27.06;43.07
77793;BME280;66983;51.438;5.438;2023-07-08T08:21:02;101387.47;;;27.17;42.26
77793;BME280;66983;51.438;5.438;2023-07-08T08:23:28;101392.53;;;27.30;43.29
77793;BME280;66983;51.438;5.438;2023-07-08T08:25:53;101386.69;;;27.43;41.91
77793;BME280;66983;51.438;5.438;2023-07-08T08:28:19;101398.97;;;27.56;43.21
77793;BME280;66983;51.438;5.438;2023-07-08T08:30:49;101399.66;;;27.68;42.19
77793;BME280;66983;51.438;5.438;2023-07-08T08:33:15;101402.78;;;27.73;41.70
77793;BME280;66983;51.438;5.438;2023-07-08T08:35:44;101396.34;;;27.82;42.13
77793;BME280;66983;51.438;5.438;2023-07-08T08:38:09;101399.47;;;27.87;40.79
77793;BME280;66983;51.438;5.438;2023-07-08T08:40:35;101404.56;;;28.00;41.38
77793;BME280;66983;51.438;5.438;2023-07-08T08:43:05;101403.41;;;28.11;40.66
77793;BME280;66983;51.438;5.438;2023-07-08T08:45:41;101399.72;;;28.20;41.19
77793;BME280;66983;51.438;5.438;2023-07-08T08:48:13;101406.38;;;28.35;40.88
77793;BME280;66983;51.438;5.438;2023-07-08T08:50:55;101412.56;;;28.37;40.22
77793;BME280;66983;51.438;5.438;2023-07-08T08:53:23;101413.31;;;28.47;39.52
77793;BME280;66983;51.438;5.438;2023-07-08T08:56:22;101413.88;;;28.59;40.96
77793;BME280;66983;51.438;5.438;2023-07-08T09:01:25;101424.47;;;28.80;39.12
77793;BME280;66983;51.438;5.438;2023-07-08T09:07:06;101423.97;;;29.10;39.59
77793;BME280;66983;51.438;5.438;2023-07-08T09:10:03;101415.06;;;29.24;39.11
77793;BME280;66983;51.438;5.438;2023-07-08T09:12:32;101407.88;;;29.39;38.04
77793;BME280;66983;51.438;5.438;2023-07-08T09:14:59;101404.84;;;29.43;36.58
77793;BME280;66983;51.438;5.438;2023-07-08T09:17:29;101399.91;;;29.54;37.03
77793;BME280;66983;51.438;5.438;2023-07-08T09:27:40;101404.59;;;30.02;36.90
77793;BME280;66983;51.438;5.438;2023-07-08T09:30:19;101399.78;;;30.13;33.96
77793;BME280;66983;51.438;5.438;2023-07-08T09:32:46;101394.06;;;30.22;34.75
77793;BME280;66983;51.438;5.438;2023-07-08T09:35:27;101392.53;;;30.28;33.31
77793;BME280;66983;51.438;5.438;2023-07-08T09:37:54;101381.34;;;30.37;34.12
77793;BME280;66983;51.438;5.438;2023-07-08T09:40:30;101372.34;;;30.44;33.28
77793;BME280;66983;51.438;5.438;2023-07-08T09:43:24;101377.00;;;30.59;34.73
77793;BME280;66983;51.438;5.438;2023-07-08T09:45:51;101387.31;;;30.65;33.01
77793;BME280;66983;51.438;5.438;2023-07-08T09:48:23;101380.00;;;30.81;35.28
77793;BME280;66983;51.438;5.438;2023-07-08T09:50:52;101385.94;;;31.00;32.45
77793;BME280;66983;51.438;5.438;2023-07-08T09:53:19;101388.47;;;31.18;33.26
77793;BME280;66983;51.438;5.438;2023-07-08T09:55:46;101381.00;;;31.27;33.93
77793;BME280;66983;51.438;5.438;2023-07-08T09:58:18;101387.56;;;31.49;33.90
77793;BME280;66983;51.438;5.438;2023-07-08T10:00:51;101379.56;;;31.62;31.52
77793;BME280;66983;51.438;5.438;2023-07-08T10:03:26;101378.72;;;31.84;30.50
77793;BME280;66983;51.438;5.438;2023-07-08T10:05:55;101385.78;;;32.01;29.72
77793;BME280;66983;51.438;5.438;2023-07-08T10:08:24;101374.50;;;32.11;30.32
77793;BME280;66983;51.438;5.438;2023-07-08T10:11:00;101378.75;;;32.22;29.66
77793;BME280;66983;51.438;5.438;2023-07-08T10:13:40;101377.34;;;32.41;30.12
77793;BME280;66983;51.438;5.438;2023-07-08T10:16:17;101381.50;;;32.51;28.60
77793;BME280;66983;51.438;5.438;2023-07-08T10:18:46;101377.53;;;32.68;29.24
77793;BME280;66983;51.438;5.438;2023-07-08T10:30:00;101377.63;;;33.41;29.63
77793;BME280;66983;51.438;5.438;2023-07-08T10:32:59;101378.97;;;33.66;29.54
77793;BME280;66983;51.438;5.438;2023-07-08T10:35:45;101382.72;;;33.80;28.49
77793;BME280;66983;51.438;5.438;2023-07-08T10:41:33;101382.72;;;34.01;27.72
77793;BME280;66983;51.438;5.438;2023-07-08T10:47:00;101384.28;;;34.38;26.82
77793;BME280;66983;51.438;5.438;2023-07-08T10:49:56;101383.75;;;34.49;26.93
77793;BME280;66983;51.438;5.438;2023-07-08T10:52:37;101385.78;;;34.68;29.06
77793;BME280;66983;51.438;5.438;2023-07-08T10:58:04;101382.28;;;34.88;25.64
77793;BME280;66983;51.438;5.438;2023-07-08T11:00:37;101379.34;;;34.96;24.63
77793;BME280;66983;51.438;5.438;2023-07-08T11:03:26;101376.59;;;35.09;26.31
77793;BME280;66983;51.438;5.438;2023-07-08T11:06:26;101368.72;;;35.13;26.40
77793;BME280;66983;51.438;5.438;2023-07-08T11:08:57;101372.22;;;35.34;25.02
77793;BME280;66983;51.438;5.438;2023-07-08T11:13:58;101373.16;;;35.68;25.42
77793;BME280;66983;51.438;5.438;2023-07-08T11:16:36;101371.88;;;35.70;24.74
77793;BME280;66983;51.438;5.438;2023-07-08T11:19:34;101382.34;;;35.75;25.87
77793;BME280;66983;51.438;5.438;2023-07-08T11:22:09;101372.72;;;35.58;24.19
77793;BME280;66983;51.438;5.438;2023-07-08T11:24:48;101374.44;;;35.65;24.46
77793;BME280;66983;51.438;5.438;2023-07-08T11:27:34;101380.88;;;35.92;25.05
77793;BME280;66983;51.438;5.438;2023-07-08T11:32:37;101369.78;;;36.06;24.66
77793;BME280;66983;51.438;5.438;2023-07-08T11:35:06;101357.38;;;36.15;22.73
77793;BME280;66983;51.438;5.438;2023-07-08T11:37:38;101359.34;;;36.27;23.14
77793;BME280;66983;51.438;5.438;2023-07-08T11:44:59;101352.22;;;36.58;21.12
77793;BME280;66983;51.438;5.438;2023-07-08T11:47:35;101350.44;;;36.70;21.76
77793;BME280;66983;51.438;5.438;2023-07-08T11:50:03;101351.50;;;36.89;21.58
77793;BME280;66983;51.438;5.438;2023-07-08T11:52:30;101358.94;;;36.95;21.25
77793;BME280;66983;51.438;5.438;2023-07-08T11:55:02;101356.97;;;37.02;20.92
77793;BME280;66983;51.438;5.438;2023-07-08T11:57:37;101355.00;;;37.16;21.75
77793;BME280;66983;51.438;5.438;2023-07-08T12:00:24;101363.59;;;37.08;21.41
77793;BME280;66983;51.438;5.438;2023-07-08T12:03:17;101351.59;;;37.07;21.36
77793;BME280;66983;51.438;5.438;2023-07-08T12:05:43;101347.25;;;37.24;21.15
77793;BME280;66983;51.438;5.438;2023-07-08T12:08:15;101357.53;;;37.24;21.04
77793;BME280;66983;51.438;5.438;2023-07-08T12:10:47;101353.91;;;37.23;21.37
77793;BME280;66983;51.438;5.438;2023-07-08T12:13:17;101348.59;;;37.47;24.49
77793;BME280;66983;51.438;5.438;2023-07-08T12:15:43;101346.63;;;37.54;24.63
77793;BME280;66983;51.438;5.438;2023-07-08T12:20:38;101339.38;;;37.53;20.84
77793;BME280;66983;51.438;5.438;2023-07-08T12:23:22;101337.78;;;37.39;22.19
77793;BME280;66983;51.438;5.438;2023-07-08T12:25:47;101332.09;;;37.52;21.73
77793;BME280;66983;51.438;5.438;2023-07-08T12:28:14;101338.47;;;37.59;24.25
77793;BME280;66983;51.438;5.438;2023-07-08T12:30:43;101324.06;;;37.68;21.35
77793;BME280;66983;51.438;5.438;2023-07-08T12:33:25;101327.22;;;37.79;21.29
77793;BME280;66983;51.438;5.438;2023-07-08T12:35:53;101325.91;;;37.81;21.97
77793;BME280;66983;51.438;5.438;2023-07-08T12:38:23;101326.53;;;37.83;21.09
77793;BME280;66983;51.438;5.438;2023-07-08T12:40:52;101326.06;;;37.86;21.21
77793;BME280;66983;51.438;5.438;2023-07-08T12:43:18;101324.78;;;37.89;21.41
77793;BME280;66983;51.438;5.438;2023-07-08T12:45:44;101326.13;;;37.80;23.24
77793;BME280;66983;51.438;5.438;2023-07-08T12:48:09;101327.78;;;37.87;22.13
77793;BME280;66983;51.438;5.438;2023-07-08T12:50:35;101316.91;;;38.04;25.23
77793;BME280;66983;51.438;5.438;2023-07-08T12:53:04;101320.91;;;38.15;23.23
77793;BME280;66983;51.438;5.438;2023-07-08T12:55:43;101309.63;;;38.28;22.74
77793;BME280;66983;51.438;5.438;2023-07-08T12:58:28;101327.44;;;38.45;21.89
77793;BME280;66983;51.438;5.438;2023-07-08T13:00:57;101313.50;;;38.45;23.27
77793;BME280;66983;51.438;5.438;2023-07-08T13:03:27;101310.38;;;38.53;22.35
77793;BME280;66983;51.438;5.438;2023-07-08T13:05:56;101312.75;;;38.56;23.29
77793;BME280;66983;51.438;5.438;2023-07-08T13:08:27;101310.91;;;38.68;21.47
77793;BME280;66983;51.438;5.438;2023-07-08T13:10:57;101316.75;;;38.79;22.01
77793;BME280;66983;51.438;5.438;2023-07-08T13:13:28;101313.81;;;38.74;21.93
77793;BME280;66983;51.438;5.438;2023-07-08T13:15:55;101320.91;;;38.51;22.38
77793;BME280;66983;51.438;5.438;2023-07-08T13:18:28;101318.75;;;38.53;24.05
77793;BME280;66983;51.438;5.438;2023-07-08T13:20:55;101314.00;;;38.60;21.34
77793;BME280;66983;51.438;5.438;2023-07-08T13:23:22;101309.59;;;38.71;23.09
77793;BME280;66983;51.438;5.438;2023-07-08T13:25:52;101317.06;;;38.89;22.10
77793;BME280;66983;51.438;5.438;2023-07-08T13:28:19;101309.31;;;38.91;22.63
77793;BME280;66983;51.438;5.438;2023-07-08T13:31:00;101307.28;;;38.98;22.42
77793;BME280;66983;51.438;5.438;2023-07-08T13:33:33;101304.66;;;38.85;21.99
77793;BME280;66983;51.438;5.438;2023-07-08T13:36:04;101309.22;;;38.97;23.44
77793;BME280;66983;51.438;5.438;2023-07-08T13:38:35;101308.59;;;38.95;21.68
77793;BME280;66983;51.438;5.438;2023-07-08T13:41:05;101313.50;;;38.82;21.81
77793;BME280;66983;51.438;5.438;2023-07-08T13:43:39;101302.97;;;38.84;21.91
77793;BME280;66983;51.438;5.438;2023-07-08T13:46:38;101310.53;;;38.95;22.43
77793;BME280;66983;51.438;5.438;2023-07-08T13:49:15;101307.03;;;38.99;22.40
77793;BME280;66983;51.438;5.438;2023-07-08T13:51:42;101312.09;;;38.91;22.00
77793;BME280;66983;51.438;5.438;2023-07-08T13:54:15;101308.38;;;38.97;23.14